Muskogee, OK

9:47 AM CDT on October 23, 2014 (GMT -0500)
Okmulgee Regional | Change Station
CLOSE
Current Station
Airport
Location: Okmulgee,
Elevation: 722 ft
Nearby Weather Stations

Elev 722 ft 35.67 °N, 95.95 °W | Updated 52 minutes ago

Overcast
Overcast
59 °F
Feels Like 59 °F
N
9
Wind Variable Wind from South

Today
High -- | Low -- °F
--% Chance of Precip.
Yesterday
High -- | Low -- °F
Precip. -- in
7:35 AM 6:35 PM
Waning Crescent, 0% visible
Pressure 30.16 in
Visibility 10.0 miles
Clouds Scattered Clouds 6000 ft
Overcast 7500 ft
Dew Point 56 °F
Humidity 92%
Rainfall 0.14 in
Snow Depth Not available.
UV 0 out of 12
Pollen 3.30 out of 12
Air Quality Not available.
Flu Activity No Activity
METAR KOKM 231355Z AUTO 18008KT 10SM SCT060 OVC075 15/14 A3016 RMK AO2 P0003 T01480135

More Conditions Fewer Conditions

Pressure 30.16 in
Visibility 10.0 miles
Clouds Scattered Clouds 6000 ft
Overcast 7500 ft
Dew Point 56 °F
Humidity 92%
Rainfall 0.14 in
Snow Depth Not available.
UV 0 out of 12
Pollen 3.30 out of 12
Air Quality Not available.
Flu Activity No Activity
METAR KOKM 231355Z AUTO 18008KT 10SM SCT060 OVC075 15/14 A3016 RMK AO2 P0003 T01480135

More Conditions Fewer Conditions

Nowcast | as of 9:05 am CDT on October 23, 2014

At 9:05 am...National Weather Service Doppler radar indicated scattered areas of light rain across parts of eastern Oklahoma. The rain was moving east at 25 miles an hour. Through 11 am...scattered areas of light rain will continue to move across eastern Oklahoma and northwest Arkansas. The rain will continue to become more scattered across parts of Osage...Pawnee ...Washington and creek counties. Rainfall amounts will generally be less than a tenth of an inch.

×

10-Day Weather Forecast

Almanac

Astronomy

Oct. 23, 2014 Rise Set
Actual Time 7:35 AM CDT 6:35 PM CDT
Civil Twilight 7:09 AM CDT 7:01 PM CDT
Nautical Twilight 6:39 AM CDT 7:31 PM CDT
Astronomical Twilight 6:09 AM CDT 8:01 PM CDT
Moon 7:16 AM CDT 6:38 PM CDT
Length of Visible Light 11h 52m
Length of Day
11h 00m
Tomorrow will be 2m 5s shorter.
Waning Crescent, 0% of the Moon is Illuminated
Today
Waning Crescent
Oct 23
New
Oct 30
First Quarter
Nov 6
Full
Nov 14
Last Quarter

Today's Extremes

State Highs State Lows

Community

WunderPhotos

Upload Photos

1,764,272 photos uploaded!

WunderBlogs® & News

Nearby

Snow Depth

Station Depth Elevation
No new snow has been reported.

Earthquake Activity

City Distance Mag. Time & Date
Pawnee, Oklahoma 104 miles 2.7 1:06 AM CDT
2014-10-23
Luther, Oklahoma 102 miles 2.5 10:36 PM CDT
2014-10-22
Langston, Oklahoma 112 miles 2.9 10:03 AM CDT
2014-10-22
Langston, Oklahoma 112 miles 2.6 8:31 AM CDT
2014-10-22
Minimum magnitude displayed is 2.5.

Coastal Water Temperatures

Place Temperature
No Stations Reporting

Nearby Weather Stations